sensor_id;sensor_type;location;lat;lon;timestamp;pressure;altitude;pressure_sealevel;temperature;humidity
27358;BME280;14831;50.474;7.616;2023-01-05T00:03:02;98260;;;10.4;83.4
27358;BME280;14831;50.474;7.616;2023-01-05T00:08:03;98260;;;10.5;80.8
27358;BME280;14831;50.474;7.616;2023-01-05T00:13:02;98250;;;10.6;77.2
27358;BME280;14831;50.474;7.616;2023-01-05T00:18:02;98280;;;10.8;74.9
27358;BME280;14831;50.474;7.616;2023-01-05T00:23:02;98270;;;10.8;74.1
27358;BME280;14831;50.474;7.616;2023-01-05T00:28:02;98270;;;10.7;73.2
27358;BME280;14831;50.474;7.616;2023-01-05T00:33:02;98290;;;10.7;73.2
27358;BME280;14831;50.474;7.616;2023-01-05T00:38:02;98300;;;10.5;73.1
27358;BME280;14831;50.474;7.616;2023-01-05T00:43:02;98300;;;10.5;73.1
27358;BME280;14831;50.474;7.616;2023-01-05T00:48:02;98300;;;10.5;71.8
27358;BME280;14831;50.474;7.616;2023-01-05T00:53:02;98290;;;10.4;72.5
27358;BME280;14831;50.474;7.616;2023-01-05T00:58:02;98300;;;10.4;72.7
27358;BME280;14831;50.474;7.616;2023-01-05T01:03:02;98320;;;10.3;72.0
27358;BME280;14831;50.474;7.616;2023-01-05T01:08:02;98320;;;10.3;72.4
27358;BME280;14831;50.474;7.616;2023-01-05T01:13:02;98310;;;10.3;72.3
27358;BME280;14831;50.474;7.616;2023-01-05T01:18:02;98320;;;10.2;73.1
27358;BME280;14831;50.474;7.616;2023-01-05T01:23:02;98310;;;10.1;72.5
27358;BME280;14831;50.474;7.616;2023-01-05T01:28:02;98300;;;10.1;73.3
27358;BME280;14831;50.474;7.616;2023-01-05T01:33:02;98310;;;10.0;73.6
27358;BME280;14831;50.474;7.616;2023-01-05T01:38:02;98310;;;9.9;73.4
27358;BME280;14831;50.474;7.616;2023-01-05T01:43:02;98300;;;9.9;72.8
27358;BME280;14831;50.474;7.616;2023-01-05T01:48:02;98300;;;9.9;72.5
27358;BME280;14831;50.474;7.616;2023-01-05T01:53:02;98300;;;9.9;71.9
27358;BME280;14831;50.474;7.616;2023-01-05T01:58:02;98310;;;9.8;72.3
27358;BME280;14831;50.474;7.616;2023-01-05T02:03:02;98310;;;9.8;71.7
27358;BME280;14831;50.474;7.616;2023-01-05T02:08:02;98300;;;9.8;72.0
27358;BME280;14831;50.474;7.616;2023-01-05T02:13:05;98310;;;9.8;71.8
27358;BME280;14831;50.474;7.616;2023-01-05T02:18:06;98290;;;9.7;72.4
27358;BME280;14831;50.474;7.616;2023-01-05T02:23:10;98280;;;9.7;71.9
27358;BME280;14831;50.474;7.616;2023-01-05T02:28:04;98300;;;9.7;72.2
27358;BME280;14831;50.474;7.616;2023-01-05T02:33:05;98300;;;9.7;72.0
27358;BME280;14831;50.474;7.616;2023-01-05T02:38:04;98300;;;9.7;72.2
27358;BME280;14831;50.474;7.616;2023-01-05T02:43:02;98300;;;9.8;70.8
27358;BME280;14831;50.474;7.616;2023-01-05T02:48:02;98300;;;9.7;71.0
27358;BME280;14831;50.474;7.616;2023-01-05T02:53:03;98300;;;9.7;71.1
27358;BME280;14831;50.474;7.616;2023-01-05T02:58:02;98300;;;9.6;71.2
27358;BME280;14831;50.474;7.616;2023-01-05T03:03:05;98280;;;9.6;71.3
27358;BME280;14831;50.474;7.616;2023-01-05T03:08:02;98280;;;9.6;71.3
27358;BME280;14831;50.474;7.616;2023-01-05T03:13:03;98290;;;9.6;71.7
27358;BME280;14831;50.474;7.616;2023-01-05T03:18:03;98300;;;9.6;71.6
27358;BME280;14831;50.474;7.616;2023-01-05T03:23:02;98300;;;9.6;72.4
27358;BME280;14831;50.474;7.616;2023-01-05T03:28:02;98310;;;9.6;72.8
27358;BME280;14831;50.474;7.616;2023-01-05T03:33:04;98300;;;9.6;72.7
27358;BME280;14831;50.474;7.616;2023-01-05T03:38:03;98320;;;9.7;72.9
27358;BME280;14831;50.474;7.616;2023-01-05T03:43:02;98330;;;9.6;73.3
27358;BME280;14831;50.474;7.616;2023-01-05T03:48:02;98340;;;9.6;73.8
27358;BME280;14831;50.474;7.616;2023-01-05T03:53:02;98350;;;9.6;73.9
27358;BME280;14831;50.474;7.616;2023-01-05T03:58:02;98340;;;9.5;74.4
27358;BME280;14831;50.474;7.616;2023-01-05T04:03:02;98330;;;9.6;74.2
27358;BME280;14831;50.474;7.616;2023-01-05T04:08:02;98330;;;9.6;73.4
27358;BME280;14831;50.474;7.616;2023-01-05T04:13:02;98340;;;9.5;73.8
27358;BME280;14831;50.474;7.616;2023-01-05T04:18:02;98330;;;9.5;74.9
27358;BME280;14831;50.474;7.616;2023-01-05T04:23:02;98330;;;9.5;74.6
27358;BME280;14831;50.474;7.616;2023-01-05T04:28:02;98330;;;9.5;74.5
27358;BME280;14831;50.474;7.616;2023-01-05T04:33:02;98340;;;9.5;74.5
27358;BME280;14831;50.474;7.616;2023-01-05T04:38:02;98340;;;9.5;75.3
27358;BME280;14831;50.474;7.616;2023-01-05T04:43:02;98340;;;9.5;74.8
27358;BME280;14831;50.474;7.616;2023-01-05T04:48:02;98330;;;9.5;74.5
27358;BME280;14831;50.474;7.616;2023-01-05T04:53:02;98350;;;9.4;74.8
27358;BME280;14831;50.474;7.616;2023-01-05T04:58:02;98330;;;9.5;74.2
27358;BME280;14831;50.474;7.616;2023-01-05T05:03:02;98330;;;9.5;74.6
27358;BME280;14831;50.474;7.616;2023-01-05T05:08:02;98330;;;9.4;74.8
27358;BME280;14831;50.474;7.616;2023-01-05T05:13:02;98340;;;9.4;75.0
27358;BME280;14831;50.474;7.616;2023-01-05T05:18:02;98340;;;9.4;75.3
27358;BME280;14831;50.474;7.616;2023-01-05T05:23:02;98330;;;9.3;75.8
27358;BME280;14831;50.474;7.616;2023-01-05T05:28:02;98320;;;9.3;75.9
27358;BME280;14831;50.474;7.616;2023-01-05T05:33:02;98330;;;9.2;76.6
27358;BME280;14831;50.474;7.616;2023-01-05T05:38:02;98350;;;9.2;76.8
27358;BME280;14831;50.474;7.616;2023-01-05T05:43:02;98330;;;9.2;77.1
27358;BME280;14831;50.474;7.616;2023-01-05T05:48:02;98350;;;9.2;77.4
27358;BME280;14831;50.474;7.616;2023-01-05T05:53:03;98360;;;9.2;77.2
27358;BME280;14831;50.474;7.616;2023-01-05T05:58:02;98370;;;9.2;77.9
27358;BME280;14831;50.474;7.616;2023-01-05T06:03:02;98380;;;9.1;78.9
27358;BME280;14831;50.474;7.616;2023-01-05T06:08:02;98380;;;9.0;79.2
27358;BME280;14831;50.474;7.616;2023-01-05T06:13:03;98390;;;9.0;79.9
27358;BME280;14831;50.474;7.616;2023-01-05T06:18:02;98400;;;9.0;79.3
27358;BME280;14831;50.474;7.616;2023-01-05T06:23:02;98390;;;9.0;79.3
27358;BME280;14831;50.474;7.616;2023-01-05T06:28:02;98390;;;9.0;78.8
27358;BME280;14831;50.474;7.616;2023-01-05T06:33:02;98410;;;9.1;78.7
27358;BME280;14831;50.474;7.616;2023-01-05T06:38:02;98410;;;9.0;79.6
27358;BME280;14831;50.474;7.616;2023-01-05T06:43:02;98420;;;8.9;81.8
27358;BME280;14831;50.474;7.616;2023-01-05T06:48:02;98430;;;8.7;83.0
27358;BME280;14831;50.474;7.616;2023-01-05T06:53:02;98440;;;8.6;84.0
27358;BME280;14831;50.474;7.616;2023-01-05T06:58:02;98440;;;8.5;84.6
27358;BME280;14831;50.474;7.616;2023-01-05T07:03:02;98440;;;8.5;84.8
27358;BME280;14831;50.474;7.616;2023-01-05T07:08:02;98440;;;8.5;84.3
27358;BME280;14831;50.474;7.616;2023-01-05T07:13:02;98450;;;8.5;84.3
27358;BME280;14831;50.474;7.616;2023-01-05T07:18:02;98450;;;8.5;83.8
27358;BME280;14831;50.474;7.616;2023-01-05T07:23:02;98460;;;8.6;82.7
27358;BME280;14831;50.474;7.616;2023-01-05T07:28:02;98470;;;8.6;82.3
27358;BME280;14831;50.474;7.616;2023-01-05T07:33:02;98470;;;8.6;82.6
27358;BME280;14831;50.474;7.616;2023-01-05T07:38:02;98470;;;8.6;82.4
27358;BME280;14831;50.474;7.616;2023-01-05T07:43:02;98470;;;8.6;83.0
27358;BME280;14831;50.474;7.616;2023-01-05T07:48:02;98480;;;8.6;83.2
27358;BME280;14831;50.474;7.616;2023-01-05T07:53:02;98490;;;8.6;83.2
27358;BME280;14831;50.474;7.616;2023-01-05T07:58:02;98500;;;8.6;84.3
27358;BME280;14831;50.474;7.616;2023-01-05T08:03:02;98500;;;8.6;84.3
27358;BME280;14831;50.474;7.616;2023-01-05T08:08:02;98510;;;8.6;84.4
27358;BME280;14831;50.474;7.616;2023-01-05T08:13:02;98520;;;8.5;85.9
27358;BME280;14831;50.474;7.616;2023-01-05T08:18:02;98530;;;8.5;85.6
27358;BME280;14831;50.474;7.616;2023-01-05T08:23:02;98530;;;8.6;84.8
27358;BME280;14831;50.474;7.616;2023-01-05T08:28:02;98530;;;8.6;84.2
27358;BME280;14831;50.474;7.616;2023-01-05T08:33:02;98530;;;8.6;84.6
27358;BME280;14831;50.474;7.616;2023-01-05T08:38:02;98540;;;8.6;84.0
27358;BME280;14831;50.474;7.616;2023-01-05T08:43:02;98530;;;8.6;83.9
27358;BME280;14831;50.474;7.616;2023-01-05T08:48:02;98530;;;8.7;84.1
27358;BME280;14831;50.474;7.616;2023-01-05T08:53:02;98540;;;8.7;84.4
27358;BME280;14831;50.474;7.616;2023-01-05T08:58:02;98550;;;8.7;84.4
27358;BME280;14831;50.474;7.616;2023-01-05T09:03:02;98560;;;8.7;83.8
27358;BME280;14831;50.474;7.616;2023-01-05T09:08:02;98630;;;8.7;83.8
27358;BME280;14831;50.474;7.616;2023-01-05T09:13:02;98630;;;8.7;83.8
27358;BME280;14831;50.474;7.616;2023-01-05T09:18:02;98630;;;8.7;83.8
27358;BME280;14831;50.474;7.616;2023-01-05T09:23:02;98630;;;8.7;83.8
27358;BME280;14831;50.474;7.616;2023-01-05T09:28:02;98630;;;8.7;83.8
27358;BME280;14831;50.474;7.616;2023-01-05T09:33:02;98570;;;8.8;83.8
27358;BME280;14831;50.474;7.616;2023-01-05T09:38:02;98580;;;8.9;84.0
27358;BME280;14831;50.474;7.616;2023-01-05T09:43:02;98580;;;9.0;83.6
27358;BME280;14831;50.474;7.616;2023-01-05T09:48:02;98580;;;9.0;83.9
27358;BME280;14831;50.474;7.616;2023-01-05T09:53:02;98600;;;9.1;83.2
27358;BME280;14831;50.474;7.616;2023-01-05T09:58:04;98600;;;9.1;83.3
27358;BME280;14831;50.474;7.616;2023-01-05T10:03:02;98620;;;9.0;83.7
27358;BME280;14831;50.474;7.616;2023-01-05T10:08:03;98620;;;9.1;83.6
27358;BME280;14831;50.474;7.616;2023-01-05T10:13:02;98620;;;9.2;83.5
27358;BME280;14831;50.474;7.616;2023-01-05T10:18:08;98610;;;9.3;82.5
27358;BME280;14831;50.474;7.616;2023-01-05T10:23:04;98610;;;9.3;82.3
27358;BME280;14831;50.474;7.616;2023-01-05T10:28:06;98630;;;9.3;82.1
27358;BME280;14831;50.474;7.616;2023-01-05T10:33:06;98620;;;9.3;82.3
27358;BME280;14831;50.474;7.616;2023-01-05T10:38:04;98630;;;9.3;82.7
27358;BME280;14831;50.474;7.616;2023-01-05T10:43:08;98630;;;9.3;82.7
27358;BME280;14831;50.474;7.616;2023-01-05T10:48:02;98620;;;9.3;82.5
27358;BME280;14831;50.474;7.616;2023-01-05T10:53:05;98630;;;9.3;82.0
27358;BME280;14831;50.474;7.616;2023-01-05T10:58:02;98630;;;9.4;81.2
27358;BME280;14831;50.474;7.616;2023-01-05T11:03:02;98630;;;9.6;79.1
27358;BME280;14831;50.474;7.616;2023-01-05T11:08:03;98630;;;9.8;78.3
27358;BME280;14831;50.474;7.616;2023-01-05T11:13:04;98630;;;9.8;77.0
27358;BME280;14831;50.474;7.616;2023-01-05T11:18:02;98620;;;9.9;77.8
27358;BME280;14831;50.474;7.616;2023-01-05T11:23:02;98650;;;9.9;76.8
27358;BME280;14831;50.474;7.616;2023-01-05T11:28:03;98640;;;10.0;77.3
27358;BME280;14831;50.474;7.616;2023-01-05T11:33:02;98640;;;10.0;77.3
27358;BME280;14831;50.474;7.616;2023-01-05T11:38:02;98660;;;10.1;77.2
27358;BME280;14831;50.474;7.616;2023-01-05T11:43:06;98650;;;10.1;76.3
27358;BME280;14831;50.474;7.616;2023-01-05T11:48:02;98660;;;10.1;75.4
27358;BME280;14831;50.474;7.616;2023-01-05T11:53:02;98660;;;10.1;74.7
27358;BME280;14831;50.474;7.616;2023-01-05T11:58:33;98660;;;10.0;74.8
27358;BME280;14831;50.474;7.616;2023-01-05T12:03:15;98660;;;10.0;72.2
27358;BME280;14831;50.474;7.616;2023-01-05T12:08:04;98650;;;9.9;71.6
27358;BME280;14831;50.474;7.616;2023-01-05T12:13:03;98650;;;10.0;71.7
27358;BME280;14831;50.474;7.616;2023-01-05T12:18:05;98590;;;10.2;71.3
27358;BME280;14831;50.474;7.616;2023-01-05T12:23:06;98660;;;10.2;70.7
27358;BME280;14831;50.474;7.616;2023-01-05T12:28:08;98660;;;10.0;69.4
27358;BME280;14831;50.474;7.616;2023-01-05T12:33:06;98670;;;9.9;70.3
27358;BME280;14831;50.474;7.616;2023-01-05T12:38:06;98610;;;9.9;70.3
27358;BME280;14831;50.474;7.616;2023-01-05T12:43:02;98660;;;10.0;70.3
27358;BME280;14831;50.474;7.616;2023-01-05T12:48:02;98690;;;10.1;70.1
27358;BME280;14831;50.474;7.616;2023-01-05T12:53:05;98650;;;10.2;70.8
27358;BME280;14831;50.474;7.616;2023-01-05T12:58:03;98670;;;10.2;69.6
27358;BME280;14831;50.474;7.616;2023-01-05T13:03:02;98690;;;10.1;69.5
27358;BME280;14831;50.474;7.616;2023-01-05T13:08:04;98690;;;10.1;69.3
27358;BME280;14831;50.474;7.616;2023-01-05T13:13:02;98680;;;10.1;70.3
27358;BME280;14831;50.474;7.616;2023-01-05T13:18:02;98670;;;10.1;70.4
27358;BME280;14831;50.474;7.616;2023-01-05T13:23:03;98680;;;10.1;70.5
27358;BME280;14831;50.474;7.616;2023-01-05T13:28:02;98680;;;10.0;69.3
27358;BME280;14831;50.474;7.616;2023-01-05T13:33:10;98680;;;10.0;67.6
27358;BME280;14831;50.474;7.616;2023-01-05T13:38:16;98670;;;10.0;68.8
27358;BME280;14831;50.474;7.616;2023-01-05T13:43:13;98670;;;10.1;69.5
27358;BME280;14831;50.474;7.616;2023-01-05T13:48:13;98670;;;10.1;69.6
27358;BME280;14831;50.474;7.616;2023-01-05T13:53:04;98680;;;10.1;70.0
27358;BME280;14831;50.474;7.616;2023-01-05T13:58:02;98680;;;10.1;69.7
27358;BME280;14831;50.474;7.616;2023-01-05T14:03:03;98680;;;10.1;69.9
27358;BME280;14831;50.474;7.616;2023-01-05T14:08:03;98680;;;10.1;69.8
27358;BME280;14831;50.474;7.616;2023-01-05T14:13:02;98680;;;10.1;70.3
27358;BME280;14831;50.474;7.616;2023-01-05T14:18:02;98700;;;10.0;70.3
27358;BME280;14831;50.474;7.616;2023-01-05T14:23:04;98690;;;10.0;70.7
27358;BME280;14831;50.474;7.616;2023-01-05T14:28:18;98700;;;9.9;70.7
27358;BME280;14831;50.474;7.616;2023-01-05T14:33:02;98690;;;9.9;71.4
27358;BME280;14831;50.474;7.616;2023-01-05T14:38:13;98690;;;9.9;71.7
27358;BME280;14831;50.474;7.616;2023-01-05T14:43:04;98700;;;9.9;71.5
27358;BME280;14831;50.474;7.616;2023-01-05T14:48:02;98690;;;9.9;71.5
27358;BME280;14831;50.474;7.616;2023-01-05T14:53:03;98690;;;9.9;73.0
27358;BME280;14831;50.474;7.616;2023-01-05T14:58:03;98710;;;9.9;74.3
27358;BME280;14831;50.474;7.616;2023-01-05T15:03:07;98700;;;9.8;75.3
27358;BME280;14831;50.474;7.616;2023-01-05T15:08:06;98710;;;9.8;75.8
27358;BME280;14831;50.474;7.616;2023-01-05T15:13:14;98710;;;9.6;76.5
27358;BME280;14831;50.474;7.616;2023-01-05T15:23:07;98700;;;9.5;78.4
27358;BME280;14831;50.474;7.616;2023-01-05T15:28:05;98710;;;9.4;78.6
27358;BME280;14831;50.474;7.616;2023-01-05T15:33:06;98720;;;9.4;78.9
27358;BME280;14831;50.474;7.616;2023-01-05T15:38:42;98710;;;9.3;79.3
27358;BME280;14831;50.474;7.616;2023-01-05T15:43:02;98710;;;9.3;79.8
27358;BME280;14831;50.474;7.616;2023-01-05T15:48:04;98720;;;9.3;80.4
27358;BME280;14831;50.474;7.616;2023-01-05T15:53:02;98710;;;9.2;82.0
27358;BME280;14831;50.474;7.616;2023-01-05T15:58:03;98710;;;9.1;84.0
27358;BME280;14831;50.474;7.616;2023-01-05T16:03:16;98710;;;9.1;83.8
27358;BME280;14831;50.474;7.616;2023-01-05T16:08:03;98720;;;9.0;84.0
27358;BME280;14831;50.474;7.616;2023-01-05T16:13:02;98710;;;8.9;85.6
27358;BME280;14831;50.474;7.616;2023-01-05T16:18:02;98720;;;8.8;86.8
27358;BME280;14831;50.474;7.616;2023-01-05T16:23:03;98720;;;8.7;88.1
27358;BME280;14831;50.474;7.616;2023-01-05T16:28:02;98710;;;8.6;89.4
27358;BME280;14831;50.474;7.616;2023-01-05T16:33:03;98720;;;8.6;89.6
27358;BME280;14831;50.474;7.616;2023-01-05T16:38:03;98720;;;8.5;89.9
27358;BME280;14831;50.474;7.616;2023-01-05T16:43:02;98720;;;8.5;89.9
27358;BME280;14831;50.474;7.616;2023-01-05T16:48:02;98710;;;8.5;90.3
27358;BME280;14831;50.474;7.616;2023-01-05T16:53:02;98710;;;8.5;90.3
27358;BME280;14831;50.474;7.616;2023-01-05T16:58:03;98720;;;8.4;91.1
27358;BME280;14831;50.474;7.616;2023-01-05T17:03:02;98710;;;8.4;91.0
27358;BME280;14831;50.474;7.616;2023-01-05T17:08:05;98700;;;8.4;91.4
27358;BME280;14831;50.474;7.616;2023-01-05T17:13:02;98710;;;8.3;91.7
27358;BME280;14831;50.474;7.616;2023-01-05T17:18:09;98700;;;8.3;91.5
27358;BME280;14831;50.474;7.616;2023-01-05T17:23:02;98700;;;8.3;91.9
27358;BME280;14831;50.474;7.616;2023-01-05T17:28:02;98700;;;8.3;91.1
27358;BME280;14831;50.474;7.616;2023-01-05T17:33:02;98700;;;8.3;90.8
27358;BME280;14831;50.474;7.616;2023-01-05T17:38:02;98700;;;8.5;89.7
27358;BME280;14831;50.474;7.616;2023-01-05T17:43:02;98700;;;8.5;89.0
27358;BME280;14831;50.474;7.616;2023-01-05T17:48:02;98690;;;8.6;89.0
27358;BME280;14831;50.474;7.616;2023-01-05T17:53:02;98680;;;8.6;88.8
27358;BME280;14831;50.474;7.616;2023-01-05T17:58:02;98680;;;8.6;88.8
27358;BME280;14831;50.474;7.616;2023-01-05T18:03:02;98670;;;8.6;88.9
27358;BME280;14831;50.474;7.616;2023-01-05T18:08:02;98670;;;8.6;89.6
27358;BME280;14831;50.474;7.616;2023-01-05T18:13:02;98670;;;8.6;89.8
27358;BME280;14831;50.474;7.616;2023-01-05T18:18:02;98680;;;8.6;90.1
27358;BME280;14831;50.474;7.616;2023-01-05T18:23:02;98670;;;8.6;90.5
27358;BME280;14831;50.474;7.616;2023-01-05T18:28:02;98680;;;8.6;91.2
27358;BME280;14831;50.474;7.616;2023-01-05T18:33:02;98680;;;8.5;92.1
27358;BME280;14831;50.474;7.616;2023-01-05T18:38:02;98690;;;8.4;93.1
27358;BME280;14831;50.474;7.616;2023-01-05T18:43:02;98680;;;8.4;93.7
27358;BME280;14831;50.474;7.616;2023-01-05T18:48:02;98670;;;8.3;94.2
27358;BME280;14831;50.474;7.616;2023-01-05T18:53:02;98680;;;8.3;94.2
27358;BME280;14831;50.474;7.616;2023-01-05T18:58:02;98680;;;8.3;94.2
27358;BME280;14831;50.474;7.616;2023-01-05T19:03:02;98670;;;8.4;94.7
27358;BME280;14831;50.474;7.616;2023-01-05T19:08:02;98670;;;8.4;94.7
27358;BME280;14831;50.474;7.616;2023-01-05T19:13:02;98660;;;8.4;94.8
27358;BME280;14831;50.474;7.616;2023-01-05T19:18:02;98660;;;8.4;94.8
27358;BME280;14831;50.474;7.616;2023-01-05T19:23:02;98660;;;8.4;94.8
27358;BME280;14831;50.474;7.616;2023-01-05T19:28:02;98660;;;8.4;94.8
27358;BME280;14831;50.474;7.616;2023-01-05T19:33:02;98660;;;8.4;94.8
27358;BME280;14831;50.474;7.616;2023-01-05T19:38:02;98660;;;8.4;94.8
27358;BME280;14831;50.474;7.616;2023-01-05T19:43:02;98660;;;8.4;94.8
27358;BME280;14831;50.474;7.616;2023-01-05T19:48:02;98660;;;8.4;94.8
27358;BME280;14831;50.474;7.616;2023-01-05T19:53:02;98660;;;8.4;94.8
27358;BME280;14831;50.474;7.616;2023-01-05T19:58:02;98660;;;8.4;94.8
27358;BME280;14831;50.474;7.616;2023-01-05T20:03:02;98660;;;8.4;94.8
27358;BME280;14831;50.474;7.616;2023-01-05T20:08:02;98660;;;8.4;94.8
27358;BME280;14831;50.474;7.616;2023-01-05T20:13:02;98660;;;8.4;94.8
27358;BME280;14831;50.474;7.616;2023-01-05T20:18:02;98660;;;8.4;94.8
27358;BME280;14831;50.474;7.616;2023-01-05T20:23:02;98660;;;8.4;94.8
27358;BME280;14831;50.474;7.616;2023-01-05T20:28:02;98660;;;8.4;94.8
27358;BME280;14831;50.474;7.616;2023-01-05T20:33:03;98660;;;8.4;94.8
27358;BME280;14831;50.474;7.616;2023-01-05T20:38:02;98660;;;8.4;94.8
27358;BME280;14831;50.474;7.616;2023-01-05T20:43:02;98660;;;8.4;94.8
27358;BME280;14831;50.474;7.616;2023-01-05T20:48:02;98660;;;8.4;94.8
27358;BME280;14831;50.474;7.616;2023-01-05T20:53:02;98660;;;8.4;94.8
27358;BME280;14831;50.474;7.616;2023-01-05T20:58:02;98660;;;8.4;94.8
27358;BME280;14831;50.474;7.616;2023-01-05T21:03:02;98660;;;8.4;94.8
27358;BME280;14831;50.474;7.616;2023-01-05T21:08:02;98660;;;8.4;94.8
27358;BME280;14831;50.474;7.616;2023-01-05T21:13:02;98660;;;8.4;94.8
27358;BME280;14831;50.474;7.616;2023-01-05T21:18:02;98660;;;8.4;94.8
27358;BME280;14831;50.474;7.616;2023-01-05T21:23:02;98650;;;8.7;97.3
27358;BME280;14831;50.474;7.616;2023-01-05T21:28:02;98640;;;8.8;97.2
27358;BME280;14831;50.474;7.616;2023-01-05T21:33:02;98640;;;8.8;97.2
27358;BME280;14831;50.474;7.616;2023-01-05T21:38:02;98630;;;8.8;97.3
27358;BME280;14831;50.474;7.616;2023-01-05T21:43:02;98620;;;8.8;97.4
27358;BME280;14831;50.474;7.616;2023-01-05T21:48:02;98620;;;8.8;97.3
27358;BME280;14831;50.474;7.616;2023-01-05T21:53:02;98610;;;8.9;97.4
27358;BME280;14831;50.474;7.616;2023-01-05T21:58:02;98610;;;8.9;97.3
27358;BME280;14831;50.474;7.616;2023-01-05T22:03:02;98610;;;8.9;97.4
27358;BME280;14831;50.474;7.616;2023-01-05T22:08:02;98620;;;8.9;97.5
27358;BME280;14831;50.474;7.616;2023-01-05T22:13:02;98610;;;8.9;97.5
27358;BME280;14831;50.474;7.616;2023-01-05T22:18:02;98620;;;8.9;97.5
27358;BME280;14831;50.474;7.616;2023-01-05T22:23:02;98600;;;8.9;97.6
27358;BME280;14831;50.474;7.616;2023-01-05T22:28:02;98600;;;8.9;97.6
27358;BME280;14831;50.474;7.616;2023-01-05T22:33:02;98580;;;9.0;97.6
27358;BME280;14831;50.474;7.616;2023-01-05T22:38:02;98580;;;9.0;97.6
27358;BME280;14831;50.474;7.616;2023-01-05T22:43:02;98580;;;9.1;97.6
27358;BME280;14831;50.474;7.616;2023-01-05T22:48:02;98590;;;9.1;97.6
27358;BME280;14831;50.474;7.616;2023-01-05T22:53:02;98600;;;9.1;97.6
27358;BME280;14831;50.474;7.616;2023-01-05T22:58:02;98600;;;9.2;97.6
27358;BME280;14831;50.474;7.616;2023-01-05T23:03:02;98590;;;9.2;97.6
27358;BME280;14831;50.474;7.616;2023-01-05T23:08:02;98580;;;9.2;97.6
27358;BME280;14831;50.474;7.616;2023-01-05T23:13:02;98590;;;9.2;97.6
27358;BME280;14831;50.474;7.616;2023-01-05T23:18:02;98590;;;9.2;97.6
27358;BME280;14831;50.474;7.616;2023-01-05T23:23:02;98580;;;9.3;97.6
27358;BME280;14831;50.474;7.616;2023-01-05T23:28:02;98580;;;9.3;97.6
27358;BME280;14831;50.474;7.616;2023-01-05T23:33:02;98570;;;9.2;97.6
27358;BME280;14831;50.474;7.616;2023-01-05T23:38:02;98580;;;9.2;97.6
27358;BME280;14831;50.474;7.616;2023-01-05T23:43:02;98560;;;9.2;97.6
27358;BME280;14831;50.474;7.616;2023-01-05T23:48:02;98550;;;9.3;97.6
27358;BME280;14831;50.474;7.616;2023-01-05T23:53:02;98550;;;9.3;97.6
27358;BME280;14831;50.474;7.616;2023-01-05T23:58:02;98550;;;9.3;97.6
